createdAt,value
2018-06-02T00:01:25.521Z,17.83
2018-06-02T00:03:51.333Z,12.70
2018-06-02T00:06:17.163Z,11.03
2018-06-02T00:08:42.963Z,23.33
2018-06-02T00:11:08.809Z,19.67
2018-06-02T00:13:34.581Z,12.87
2018-06-02T00:16:00.384Z,12.57
2018-06-02T00:18:26.202Z,18.67
2018-06-02T00:20:52.005Z,12.70
2018-06-02T00:23:21.613Z,14.57
2018-06-02T00:25:47.418Z,18.50
2018-06-02T00:28:13.209Z,19.90
2018-06-02T00:30:39.011Z,11.63
2018-06-02T00:33:04.807Z,19.60
2018-06-02T00:35:30.600Z,12.40
2018-06-02T00:37:56.394Z,10.00
2018-06-02T00:40:22.211Z,13.53
2018-06-02T00:42:47.994Z,9.83
2018-06-02T00:45:14.184Z,9.77
2018-06-02T00:47:39.989Z,14.13
2018-06-02T00:50:05.790Z,10.63
2018-06-02T00:52:31.595Z,9.30
2018-06-02T00:55:07.421Z,12.50
2018-06-02T00:57:33.238Z,9.67
2018-06-02T00:59:59.017Z,12.67
2018-06-02T01:02:24.801Z,14.43
2018-06-02T01:04:50.593Z,9.40
2018-06-02T01:07:17.341Z,14.37
2018-06-02T01:09:43.146Z,9.57
2018-06-02T01:12:08.950Z,10.13
2018-06-02T01:14:34.741Z,15.30
2018-06-02T01:17:00.561Z,14.93
2018-06-02T01:19:26.358Z,13.67
2018-06-02T01:21:52.159Z,10.37
2018-06-02T01:24:17.976Z,11.20
2018-06-02T01:26:43.753Z,16.70
2018-06-02T01:29:09.536Z,9.67
2018-06-02T01:31:35.316Z,18.10
2018-06-02T01:34:01.109Z,11.67
2018-06-02T01:36:26.916Z,13.50
2018-06-02T01:38:52.693Z,8.50
2018-06-02T01:41:18.465Z,10.63
2018-06-02T01:43:44.473Z,14.80
2018-06-02T01:46:10.274Z,21.87
2018-06-02T01:48:36.097Z,15.40
2018-06-02T01:51:01.898Z,12.00
2018-06-02T01:53:27.685Z,16.80
2018-06-02T01:55:53.494Z,20.73
2018-06-02T01:58:19.281Z,18.43
2018-06-02T02:00:45.071Z,13.93
2018-06-02T02:03:10.884Z,14.93
2018-06-02T02:05:36.715Z,17.33
2018-06-02T02:08:02.509Z,19.30
2018-06-02T02:10:28.306Z,13.83
2018-06-02T02:12:54.126Z,23.07
2018-06-02T02:15:19.921Z,14.13
2018-06-02T02:17:45.721Z,12.57
2018-06-02T02:20:11.588Z,14.47
2018-06-02T02:22:37.409Z,19.30
2018-06-02T02:25:03.178Z,15.70
2018-06-02T02:27:28.998Z,20.63
2018-06-02T02:29:54.786Z,64.07
2018-06-02T02:32:20.575Z,40.30
2018-06-02T02:34:46.724Z,48.00
2018-06-02T02:37:12.564Z,29.40
2018-06-02T02:39:38.362Z,42.03
2018-06-02T02:42:04.163Z,36.43
2018-06-02T02:44:30.233Z,44.93
2018-06-02T02:46:56.035Z,48.60
2018-06-02T02:49:21.818Z,66.77
2018-06-02T02:51:47.614Z,42.07
2018-06-02T02:54:13.406Z,62.33
2018-06-02T02:56:39.194Z,56.93
2018-06-02T02:59:04.997Z,62.83
2018-06-02T03:01:30.777Z,80.73
2018-06-02T03:03:56.561Z,63.93
2018-06-02T03:06:22.384Z,65.53
2018-06-02T03:08:48.186Z,74.83
2018-06-02T03:11:13.971Z,73.17
2018-06-02T03:13:39.790Z,65.73
2018-06-02T03:16:05.574Z,75.00
2018-06-02T03:18:31.357Z,75.97
2018-06-02T03:20:57.177Z,89.80
2018-06-02T03:23:22.961Z,81.47
2018-06-02T03:25:48.773Z,69.30
2018-06-02T03:28:14.551Z,80.73
2018-06-02T03:30:40.357Z,74.93
2018-06-02T03:33:06.140Z,78.60
2018-06-02T03:35:31.925Z,75.10
2018-06-02T03:37:57.724Z,79.00
2018-06-02T03:40:23.523Z,73.73
2018-06-02T03:42:49.315Z,84.90
2018-06-02T03:45:15.117Z,85.20
2018-06-02T03:47:41.008Z,86.60
2018-06-02T03:50:06.793Z,105.40
2018-06-02T03:52:32.618Z,77.03
2018-06-02T03:54:58.395Z,67.30
2018-06-02T03:57:24.164Z,68.80
2018-06-02T03:59:49.953Z,70.03
2018-06-02T04:02:15.792Z,60.23
2018-06-02T04:04:41.630Z,56.20
2018-06-02T04:07:07.423Z,55.93
2018-06-02T04:09:33.229Z,62.40
2018-06-02T04:11:59.021Z,56.13
2018-06-02T04:14:24.827Z,73.90
2018-06-02T04:16:50.657Z,53.73
2018-06-02T04:19:16.442Z,63.63
2018-06-02T04:21:42.238Z,60.37
2018-06-02T04:24:08.041Z,77.87
2018-06-02T04:26:33.861Z,58.73
2018-06-02T04:28:59.634Z,78.00
2018-06-02T04:31:25.430Z,61.60
2018-06-02T04:33:51.239Z,81.63
2018-06-02T04:36:17.028Z,76.50
2018-06-02T04:38:42.800Z,76.50
2018-06-02T04:41:08.598Z,78.47
2018-06-02T04:43:34.381Z,76.60
2018-06-02T04:46:00.176Z,70.20
2018-06-02T04:48:25.958Z,67.60
2018-06-02T04:50:51.782Z,73.40
2018-06-02T04:53:17.597Z,89.97
2018-06-02T04:55:43.391Z,84.40
2018-06-02T04:58:09.178Z,85.57
2018-06-02T05:00:34.970Z,84.37
2018-06-02T05:03:00.757Z,101.37
2018-06-02T05:05:26.588Z,111.37
2018-06-02T05:07:52.374Z,96.40
2018-06-02T05:10:18.221Z,115.10
2018-06-02T05:12:44.004Z,113.47
2018-06-02T05:15:09.843Z,111.40
2018-06-02T05:17:35.627Z,116.07
2018-06-02T05:20:01.412Z,124.40
2018-06-02T05:22:27.245Z,139.30
2018-06-02T05:24:53.032Z,131.73
2018-06-02T05:27:18.809Z,145.57
2018-06-02T05:29:44.600Z,139.67
2018-06-02T05:32:10.388Z,147.37
2018-06-02T05:34:36.166Z,156.37
2018-06-02T05:37:01.987Z,149.83
2018-06-02T05:39:27.771Z,151.87
2018-06-02T05:41:53.553Z,164.90
2018-06-02T05:44:19.385Z,173.80
2018-06-02T05:46:45.174Z,185.03
2018-06-02T05:49:10.956Z,200.93
2018-06-02T05:51:36.745Z,171.67
2018-06-02T05:54:02.576Z,189.80
2018-06-02T05:56:28.368Z,179.20
2018-06-02T05:58:54.165Z,179.33
2018-06-02T06:01:19.997Z,161.70
2018-06-02T06:03:45.780Z,174.20
2018-06-02T06:06:11.568Z,171.37
2018-06-02T06:08:37.381Z,167.70
2018-06-02T06:11:03.169Z,176.00
2018-06-02T06:13:28.950Z,162.57
2018-06-02T06:15:54.773Z,165.23
2018-06-02T06:18:20.588Z,175.40
2018-06-02T06:20:46.382Z,171.50
2018-06-02T06:23:12.193Z,159.37
2018-06-02T06:25:37.985Z,150.60
2018-06-02T06:28:03.861Z,162.07
2018-06-02T06:30:29.665Z,176.13
2018-06-02T06:32:55.446Z,183.20
2018-06-02T06:35:21.268Z,169.63
2018-06-02T06:37:47.065Z,158.97
2018-06-02T06:40:12.864Z,159.03
2018-06-02T06:42:38.660Z,152.77
2018-06-02T06:45:04.465Z,166.13
2018-06-02T06:47:30.261Z,142.20
2018-06-02T06:49:56.059Z,134.40
2018-06-02T06:52:21.840Z,127.03
2018-06-02T06:54:47.660Z,138.57
2018-06-02T06:57:13.448Z,117.67
2018-06-02T06:59:39.255Z,120.07
2018-06-02T07:02:05.075Z,134.30
2018-06-02T07:04:30.885Z,123.43
2018-06-02T07:06:56.673Z,122.83
2018-06-02T07:09:22.468Z,126.40
2018-06-02T07:11:48.336Z,113.87
2018-06-02T07:14:14.055Z,125.00
2018-06-02T07:16:39.868Z,119.13
2018-06-02T07:19:05.671Z,105.23
2018-06-02T07:21:31.466Z,118.27
2018-06-02T07:23:57.249Z,116.67
2018-06-02T07:26:23.062Z,111.30
2018-06-02T07:28:48.837Z,119.30
2018-06-02T07:31:14.630Z,113.20
2018-06-02T07:33:40.441Z,128.33
2018-06-02T07:36:06.316Z,116.70
2018-06-02T07:38:32.120Z,119.67
2018-06-02T07:40:57.899Z,128.47
2018-06-02T07:43:23.700Z,109.03
2018-06-02T07:45:49.492Z,114.23
2018-06-02T07:48:15.281Z,110.07
2018-06-02T07:50:41.105Z,107.50
2018-06-02T07:53:06.918Z,103.40
2018-06-02T07:55:32.700Z,108.17
2018-06-02T07:57:58.513Z,111.97
2018-06-02T08:00:24.305Z,112.87
2018-06-02T08:02:50.121Z,113.27
2018-06-02T08:05:15.946Z,120.53
2018-06-02T08:07:41.747Z,121.83
2018-06-02T08:10:07.561Z,124.47
2018-06-02T08:12:33.341Z,119.97
2018-06-02T08:14:59.144Z,125.50
2018-06-02T08:17:24.950Z,134.23
2018-06-02T08:19:50.738Z,118.33
2018-06-02T08:22:16.533Z,121.37
2018-06-02T08:24:42.321Z,131.00
2018-06-02T08:27:08.113Z,125.07
2018-06-02T08:29:33.914Z,110.47
2018-06-02T08:31:59.702Z,125.57
2018-06-02T08:34:25.502Z,122.07
2018-06-02T08:36:51.309Z,129.67
2018-06-02T08:39:17.100Z,116.30
2018-06-02T08:41:42.908Z,113.50
2018-06-02T08:44:08.977Z,110.17
2018-06-02T08:46:34.761Z,118.50
2018-06-02T08:49:00.557Z,129.33
2018-06-02T08:51:26.359Z,130.17
2018-06-02T08:53:52.345Z,120.47
2018-06-02T08:56:18.164Z,214.80
2018-06-02T08:58:43.932Z,112.03
2018-06-02T09:01:09.723Z,112.73
2018-06-02T09:03:35.513Z,116.90
2018-06-02T09:06:01.339Z,117.67
2018-06-02T09:08:27.129Z,106.03
2018-06-02T09:10:52.942Z,115.53
2018-06-02T09:13:18.732Z,115.90
2018-06-02T09:15:44.556Z,99.03
2018-06-02T09:18:10.335Z,110.20
2018-06-02T09:20:36.145Z,98.77
2018-06-02T09:23:01.934Z,103.90
2018-06-02T09:25:27.733Z,91.53
2018-06-02T09:27:53.597Z,86.73
2018-06-02T09:30:19.326Z,107.50
2018-06-02T09:32:45.116Z,90.63
2018-06-02T09:35:11.052Z,93.00
2018-06-02T09:37:36.804Z,95.40
2018-06-02T09:40:02.613Z,90.70
2018-06-02T09:42:28.405Z,102.30
2018-06-02T09:44:54.305Z,93.83
2018-06-02T09:47:20.102Z,90.73
2018-06-02T09:49:45.892Z,109.47
2018-06-02T09:52:11.705Z,104.40
2018-06-02T09:54:37.480Z,91.47
2018-06-02T09:57:03.273Z,91.17
2018-06-02T09:59:29.066Z,89.50
2018-06-02T10:01:54.876Z,89.20
2018-06-02T10:04:20.678Z,89.47
2018-06-02T10:06:46.473Z,96.17
2018-06-02T10:09:13.304Z,87.30
2018-06-02T10:11:39.284Z,93.27
2018-06-02T10:14:05.088Z,88.90
2018-06-02T10:16:30.871Z,92.63
2018-06-02T10:18:56.948Z,93.97
2018-06-02T10:21:22.737Z,85.80
2018-06-02T10:23:48.525Z,93.30
2018-06-02T10:26:14.350Z,98.80
2018-06-02T10:28:40.137Z,88.03
2018-06-02T10:31:05.957Z,95.17
2018-06-02T10:33:31.979Z,92.93
2018-06-02T10:35:57.780Z,93.10
2018-06-02T10:38:23.567Z,95.70
2018-06-02T10:40:49.386Z,92.57
2018-06-02T10:43:15.177Z,101.07
2018-06-02T10:45:40.985Z,107.30
2018-06-02T10:48:07.213Z,116.50
2018-06-02T10:50:33.005Z,98.03
2018-06-02T10:52:58.809Z,101.30
2018-06-02T10:55:24.694Z,100.73
2018-06-02T10:57:50.487Z,98.73
2018-06-02T11:00:16.274Z,99.60
2018-06-02T11:02:42.056Z,78.47
2018-06-02T11:05:07.878Z,73.50
2018-06-02T11:07:33.667Z,65.87
2018-06-02T11:09:59.474Z,80.07
2018-06-02T11:12:25.264Z,79.27
2018-06-02T11:14:51.090Z,73.73
2018-06-02T11:17:16.874Z,71.47
2018-06-02T11:19:42.665Z,67.10
2018-06-02T11:22:08.462Z,65.33
2018-06-02T11:24:34.248Z,65.70
2018-06-02T11:27:00.020Z,71.63
2018-06-02T11:29:25.834Z,68.40
2018-06-02T11:31:51.717Z,70.00
2018-06-02T11:34:17.522Z,66.13
2018-06-02T11:36:43.324Z,69.67
2018-06-02T11:39:09.128Z,58.60
2018-06-02T11:41:34.928Z,59.77
2018-06-02T11:44:00.770Z,63.57
2018-06-02T11:46:26.529Z,68.57
2018-06-02T11:48:52.326Z,58.23
2018-06-02T11:51:18.119Z,59.57
2018-06-02T11:53:44.014Z,56.17
2018-06-02T11:56:09.812Z,47.93
2018-06-02T11:58:35.609Z,48.97
2018-06-02T12:01:01.502Z,53.83
2018-06-02T12:03:27.265Z,42.60
2018-06-02T12:05:53.057Z,31.30
2018-06-02T12:08:18.997Z,30.43
2018-06-02T12:10:44.775Z,37.73
2018-06-02T12:13:10.565Z,29.80
2018-06-02T12:15:36.392Z,25.40
2018-06-02T12:18:02.177Z,49.23
2018-06-02T12:20:27.969Z,25.30
2018-06-02T12:22:53.789Z,28.60
2018-06-02T12:25:19.572Z,29.93
2018-06-02T12:27:45.368Z,29.07
2018-06-02T12:30:11.183Z,29.77
2018-06-02T12:32:36.956Z,26.57
2018-06-02T12:35:02.763Z,34.43
2018-06-02T12:37:28.560Z,35.63
2018-06-02T12:39:54.365Z,32.60
2018-06-02T12:42:20.158Z,36.00
2018-06-02T12:44:45.973Z,35.23
2018-06-02T12:47:11.763Z,42.70
2018-06-02T12:49:37.567Z,34.50
2018-06-02T12:52:03.376Z,29.80
2018-06-02T12:54:29.166Z,31.00
2018-06-02T12:56:54.969Z,29.90
2018-06-02T12:59:20.776Z,34.80
2018-06-02T13:01:46.556Z,32.40
2018-06-02T13:04:12.340Z,34.27
2018-06-02T13:06:38.215Z,34.50
2018-06-02T13:09:03.977Z,37.87
2018-06-02T13:11:29.797Z,35.17
2018-06-02T13:13:55.629Z,67.30
2018-06-02T13:16:21.424Z,41.07
2018-06-02T13:18:47.213Z,43.53
2018-06-02T13:21:13.062Z,40.47
2018-06-02T13:23:38.844Z,43.17
2018-06-02T13:26:04.629Z,44.23
2018-06-02T13:28:30.420Z,42.17
2018-06-02T13:30:56.238Z,44.83
2018-06-02T13:33:22.027Z,44.03
2018-06-02T13:35:47.832Z,40.57
2018-06-02T13:38:13.616Z,43.10
2018-06-02T13:40:39.400Z,37.37
2018-06-02T13:43:05.255Z,41.30
2018-06-02T13:45:30.997Z,36.83
2018-06-02T13:47:57.034Z,42.00
2018-06-02T13:50:22.833Z,43.57
2018-06-02T13:52:48.671Z,35.30
2018-06-02T13:55:14.478Z,37.33
2018-06-02T13:57:40.265Z,34.40
2018-06-02T14:00:06.081Z,35.73
2018-06-02T14:02:31.870Z,33.73
2018-06-02T14:04:57.661Z,35.37
2018-06-02T14:07:23.446Z,32.00
2018-06-02T14:09:49.249Z,35.37
2018-06-02T14:12:15.050Z,37.33
2018-06-02T14:14:40.852Z,38.40
2018-06-02T14:17:06.665Z,35.43
2018-06-02T14:19:32.493Z,32.03
2018-06-02T14:21:58.322Z,34.70
2018-06-02T14:24:24.089Z,37.93
2018-06-02T14:26:49.906Z,34.20
2018-06-02T14:29:15.685Z,38.27
2018-06-02T14:31:41.469Z,36.47
2018-06-02T14:34:07.304Z,35.87
2018-06-02T14:36:33.090Z,33.73
2018-06-02T14:38:58.899Z,35.40
2018-06-02T14:41:24.722Z,40.00
2018-06-02T14:43:50.525Z,40.20
2018-06-02T14:46:16.347Z,39.03
2018-06-02T14:48:42.135Z,36.23
2018-06-02T14:51:07.945Z,32.53
2018-06-02T14:53:33.750Z,31.27
2018-06-02T14:55:59.544Z,32.13
2018-06-02T14:58:25.366Z,36.10
2018-06-02T15:00:51.145Z,30.57
2018-06-02T15:03:16.943Z,40.67
2018-06-02T15:05:43.015Z,38.77
2018-06-02T15:08:08.853Z,41.40
2018-06-02T15:10:34.636Z,40.73
2018-06-02T15:13:00.460Z,48.00
2018-06-02T15:15:26.239Z,46.07
2018-06-02T15:17:52.086Z,47.43
2018-06-02T15:20:17.895Z,55.27
2018-06-02T15:22:43.695Z,53.33
2018-06-02T15:25:09.494Z,54.13
2018-06-02T15:27:35.274Z,59.03
2018-06-02T15:30:01.058Z,54.07
2018-06-02T15:32:26.865Z,55.00
2018-06-02T15:34:52.658Z,55.93
2018-06-02T15:37:18.470Z,54.10
2018-06-02T15:39:44.281Z,57.13
2018-06-02T15:42:10.067Z,54.00
2018-06-02T15:44:35.865Z,52.00
2018-06-02T15:47:01.712Z,50.80
2018-06-02T15:49:27.500Z,48.73
2018-06-02T15:51:53.301Z,45.43
2018-06-02T15:54:19.116Z,47.47
2018-06-02T15:56:44.920Z,50.27
2018-06-02T15:59:11.755Z,52.07
2018-06-02T16:01:38.813Z,50.60
2018-06-02T16:04:11.276Z,55.17
2018-06-02T16:06:37.643Z,57.40
2018-06-02T16:09:04.345Z,55.90
2018-06-02T16:11:30.144Z,53.33
2018-06-02T16:13:55.965Z,57.67
2018-06-02T16:16:21.749Z,52.40
2018-06-02T16:18:47.537Z,82.57
2018-06-02T16:21:13.343Z,53.30
2018-06-02T16:23:39.176Z,56.97
2018-06-02T16:26:04.950Z,55.60
2018-06-02T16:28:33.104Z,57.47
2018-06-02T16:30:59.437Z,57.57
2018-06-02T16:33:25.244Z,59.93
2018-06-02T16:35:51.066Z,58.60
2018-06-02T16:38:16.844Z,53.43
2018-06-02T16:40:42.621Z,58.73
2018-06-02T16:43:08.436Z,55.00
2018-06-02T16:45:34.220Z,53.43
2018-06-02T16:48:00.015Z,61.93
2018-06-02T16:50:25.848Z,58.60
2018-06-02T16:52:51.637Z,58.13
2018-06-02T16:55:17.469Z,53.43
2018-06-02T16:57:43.261Z,61.53
2018-06-02T17:00:09.069Z,69.77
2018-06-02T17:02:34.854Z,59.17
2018-06-02T17:05:00.746Z,66.93
2018-06-02T17:07:26.549Z,66.27
2018-06-02T17:09:52.332Z,62.20
2018-06-02T17:12:18.152Z,70.43
2018-06-02T17:14:43.920Z,67.33
2018-06-02T17:17:09.707Z,64.67
2018-06-02T17:19:35.498Z,71.50
2018-06-02T17:22:01.293Z,70.23
2018-06-02T17:24:27.094Z,67.33
2018-06-02T17:26:52.897Z,68.30
2018-06-02T17:29:18.706Z,65.17
2018-06-02T17:31:44.498Z,69.20
2018-06-02T17:34:10.306Z,68.27
2018-06-02T17:36:36.100Z,74.70
2018-06-02T17:39:01.925Z,76.90
2018-06-02T17:41:27.768Z,87.73
2018-06-02T17:43:53.544Z,108.03
2018-06-02T17:46:19.338Z,106.10
2018-06-02T17:48:45.150Z,106.57
2018-06-02T17:51:10.924Z,105.57
2018-06-02T17:53:36.713Z,123.23
2018-06-02T17:56:02.558Z,116.43
2018-06-02T17:58:28.349Z,111.00
2018-06-02T18:00:54.150Z,123.97
2018-06-02T18:03:19.960Z,127.17
2018-06-02T18:05:45.828Z,108.33
2018-06-02T18:08:11.642Z,114.57
2018-06-02T18:10:37.457Z,118.80
2018-06-02T18:13:03.261Z,137.03
2018-06-02T18:15:29.050Z,160.70
2018-06-02T18:17:54.884Z,124.27
2018-06-02T18:20:20.667Z,131.40
2018-06-02T18:22:46.462Z,123.63
2018-06-02T18:25:12.256Z,130.07
2018-06-02T18:27:38.050Z,119.77
2018-06-02T18:30:03.954Z,132.63
2018-06-02T18:32:29.733Z,128.77
2018-06-02T18:34:55.529Z,118.17
2018-06-02T18:37:21.341Z,137.87
2018-06-02T18:39:47.130Z,162.97
2018-06-02T18:42:12.928Z,131.37
2018-06-02T18:44:38.745Z,164.83
2018-06-02T18:47:04.533Z,129.23
2018-06-02T18:49:30.325Z,132.30
2018-06-02T18:51:56.165Z,120.97
2018-06-02T18:54:21.951Z,120.93
2018-06-02T18:56:47.738Z,129.47
2018-06-02T18:59:13.542Z,119.27
2018-06-02T19:01:39.337Z,120.23
2018-06-02T19:04:05.122Z,121.03
2018-06-02T19:06:30.909Z,118.33
2018-06-02T19:08:56.705Z,125.60
2018-06-02T19:11:22.523Z,128.33
2018-06-02T19:13:48.318Z,132.53
2018-06-02T19:16:14.105Z,128.27
2018-06-02T19:18:40.218Z,121.10
2018-06-02T19:21:05.998Z,150.97
2018-06-02T19:23:31.793Z,135.00
2018-06-02T19:25:57.595Z,130.70
2018-06-02T19:28:23.381Z,130.83
2018-06-02T19:30:49.193Z,138.03
2018-06-02T19:33:15.216Z,122.07
2018-06-02T19:35:41.008Z,135.77
2018-06-02T19:38:06.789Z,135.80
2018-06-02T19:40:32.597Z,125.73
2018-06-02T19:42:58.457Z,123.97
2018-06-02T19:45:24.249Z,133.30
2018-06-02T19:47:50.180Z,154.63
2018-06-02T19:50:15.977Z,136.30
2018-06-02T19:52:41.771Z,127.20
2018-06-02T19:55:07.585Z,132.13
2018-06-02T19:57:33.373Z,147.40
2018-06-02T19:59:59.170Z,126.93
2018-06-02T20:02:24.961Z,132.83
2018-06-02T20:04:50.950Z,134.93
2018-06-02T20:07:16.764Z,131.40
2018-06-02T20:09:42.546Z,120.37
2018-06-02T20:12:08.346Z,135.60
2018-06-02T20:14:34.144Z,122.60
2018-06-02T20:16:59.955Z,136.30
2018-06-02T20:19:25.745Z,126.53
2018-06-02T20:21:51.549Z,126.07
2018-06-02T20:24:17.350Z,135.97
2018-06-02T20:26:43.149Z,127.60
2018-06-02T20:29:08.968Z,134.27
2018-06-02T20:31:34.756Z,138.97
2018-06-02T20:34:00.557Z,134.73
2018-06-02T20:36:33.458Z,149.57
2018-06-02T20:38:59.252Z,126.40
2018-06-02T20:41:25.109Z,136.00
2018-06-02T20:43:50.938Z,126.63
2018-06-02T20:46:16.734Z,115.30
2018-06-02T20:48:42.532Z,109.87
2018-06-02T20:51:08.320Z,113.33
2018-06-02T20:53:34.118Z,145.53
2018-06-02T20:55:59.911Z,130.63
2018-06-02T20:58:25.821Z,143.90
2018-06-02T21:00:51.625Z,145.70
2018-06-02T21:03:17.425Z,116.97
2018-06-02T21:05:43.226Z,117.30
2018-06-02T21:08:09.004Z,114.83
2018-06-02T21:10:34.794Z,119.20
2018-06-02T21:13:00.742Z,122.13
2018-06-02T21:15:26.534Z,133.80
2018-06-02T21:17:52.318Z,122.23
2018-06-02T21:20:18.117Z,122.77
2018-06-02T21:22:43.907Z,119.83
2018-06-02T21:25:09.739Z,118.20
2018-06-02T21:28:07.098Z,129.47
2018-06-02T21:30:34.134Z,108.80
2018-06-02T21:33:01.141Z,133.17
2018-06-02T21:35:28.157Z,123.10
2018-06-02T21:37:55.193Z,123.17
2018-06-02T21:40:22.213Z,125.83
2018-06-02T21:42:49.224Z,135.73
2018-06-02T21:45:16.325Z,153.73
2018-06-02T21:47:43.357Z,125.40
2018-06-02T21:50:10.369Z,116.03
2018-06-02T21:52:37.382Z,107.93
2018-06-02T21:55:04.413Z,108.50
2018-06-02T21:57:31.426Z,113.17
2018-06-02T21:59:58.474Z,91.50
2018-06-02T22:02:25.481Z,90.07
2018-06-02T22:04:52.508Z,143.30
2018-06-02T22:07:19.579Z,99.40
2018-06-02T22:09:46.634Z,114.83
2018-06-02T22:12:13.691Z,116.97
2018-06-02T22:14:40.766Z,113.80
2018-06-02T22:17:07.809Z,112.90
2018-06-02T22:19:34.817Z,135.20
2018-06-02T22:22:01.841Z,107.20
2018-06-02T22:24:28.835Z,112.20
2018-06-02T22:26:55.847Z,113.10
2018-06-02T22:29:23.068Z,108.60
2018-06-02T22:31:50.080Z,105.50
2018-06-02T22:34:17.078Z,101.67
2018-06-02T22:36:44.185Z,124.03
2018-06-02T22:39:11.231Z,108.43
2018-06-02T22:41:38.265Z,113.73
2018-06-02T22:44:05.313Z,122.60
2018-06-02T22:46:32.390Z,132.30
2018-06-02T22:48:59.401Z,132.17
2018-06-02T22:52:03.578Z,122.57
2018-06-02T22:54:30.677Z,128.57
2018-06-02T22:56:57.777Z,142.00
2018-06-02T22:59:24.860Z,140.57
2018-06-02T23:01:51.937Z,148.67
2018-06-02T23:04:18.983Z,154.80
2018-06-02T23:06:46.039Z,149.53
2018-06-02T23:09:13.051Z,144.60
2018-06-02T23:11:40.068Z,167.90
2018-06-02T23:14:07.303Z,177.30
2018-06-02T23:16:34.315Z,160.43
2018-06-02T23:19:01.321Z,152.63
2018-06-02T23:21:28.749Z,150.30
2018-06-02T23:23:55.769Z,163.73
2018-06-02T23:26:22.769Z,163.80
2018-06-02T23:28:49.798Z,163.77
2018-06-02T23:31:16.818Z,172.70
2018-06-02T23:33:43.860Z,164.70
2018-06-02T23:36:10.870Z,165.27
2018-06-02T23:38:37.908Z,175.00
2018-06-02T23:41:04.941Z,168.97
2018-06-02T23:43:31.939Z,170.03
2018-06-02T23:45:58.977Z,167.10
2018-06-02T23:48:25.993Z,146.77
2018-06-02T23:50:53.002Z,177.90
2018-06-02T23:53:20.074Z,156.53
2018-06-02T23:55:47.089Z,166.30
2018-06-02T23:58:14.093Z,202.33
